Time;durP1;ratioP1;P1;durP2;ratioP2;P2;SDS_P1;SDS_P2;PMS_P1;PMS_P2;Temp;Humidity;BMP_temperature;BMP_pressure;BME280_temperature;BME280_humidity;BME280_pressure;Samples;Min_cycle;Max_cycle;Signal;HPM_P1;HPM_P2
2022/04/25 00:00:44;;;;;;;17.65;10.65;;;9.40;80.30;;;;;;5014102;28;20065;-80
2022/04/25 00:03:09;;;;;;;16.75;9.40;;;9.40;80.10;;;;;;5012833;28;20415;-79
2022/04/25 00:05:35;;;;;;;16.58;10.07;;;9.40;80.00;;;;;;5017647;28;20041;-79
2022/04/25 00:08:01;;;;;;;17.15;10.27;;;9.50;79.80;;;;;;5012967;28;20492;-80
2022/04/25 00:10:26;;;;;;;15.30;9.88;;;9.40;79.80;;;;;;5012427;28;20766;-79
2022/04/25 00:12:52;;;;;;;17.67;9.40;;;9.30;79.80;;;;;;5011880;28;20057;-79
2022/04/25 00:15:18;;;;;;;15.77;9.20;;;9.40;79.70;;;;;;5007870;28;21954;-79
2022/04/25 00:17:43;;;;;;;17.25;10.27;;;9.30;79.60;;;;;;5013171;28;20559;-78
2022/04/25 00:20:10;;;;;;;16.52;9.43;;;9.30;79.60;;;;;;5012969;28;20049;-78
2022/04/25 00:22:37;;;;;;;14.13;9.35;;;9.30;79.40;;;;;;5015100;28;20040;-78
2022/04/25 00:25:03;;;;;;;13.15;9.05;;;9.30;79.40;;;;;;5011626;28;20111;-78
2022/04/25 00:27:29;;;;;;;15.77;9.77;;;9.30;79.30;;;;;;5011723;28;20042;-79
2022/04/25 00:29:56;;;;;;;16.98;10.07;;;9.30;79.30;;;;;;5011873;28;20061;-79
2022/04/25 00:32:23;;;;;;;14.65;9.88;;;9.20;79.20;;;;;;5029290;28;20837;-79
2022/04/25 00:34:49;;;;;;;14.80;9.10;;;9.20;79.30;;;;;;5011232;28;20489;-78
2022/04/25 00:37:15;;;;;;;17.13;9.60;;;9.10;79.30;;;;;;5010874;28;20118;-79
2022/04/25 00:39:40;;;;;;;15.80;9.93;;;9.10;79.50;;;;;;5012225;28;20124;-79
2022/04/25 00:42:06;;;;;;;22.25;10.40;;;9.10;79.40;;;;;;5013446;28;20041;-79
2022/04/25 00:44:32;;;;;;;18.60;10.52;;;9.10;79.50;;;;;;5011661;28;20048;-80
2022/04/25 00:47:00;;;;;;;16.90;10.10;;;9.10;79.80;;;;;;5013741;28;20393;-80
2022/04/25 00:49:26;;;;;;;14.57;10.55;;;9.00;80.10;;;;;;5009667;28;20049;-80
2022/04/25 00:51:52;;;;;;;15.68;10.93;;;8.90;80.30;;;;;;5014295;28;20080;-80
2022/04/25 00:54:21;;;;;;;18.50;10.65;;;9.00;80.40;;;;;;5011307;28;20062;-79
2022/04/25 00:56:48;;;;;;;17.88;11.30;;;8.90;80.50;;;;;;5012836;28;20065;-79
2022/04/25 00:59:19;;;;;;;17.25;11.88;;;8.90;80.50;;;;;;5016730;28;20068;-80
2022/04/25 01:01:46;;;;;;;17.75;11.02;;;8.90;80.60;;;;;;5012758;28;20046;-80
2022/04/25 01:04:12;;;;;;;18.15;11.45;;;8.80;80.80;;;;;;5010435;28;20513;-80
2022/04/25 01:06:38;;;;;;;17.30;10.90;;;8.80;81.00;;;;;;5014153;28;20140;-80
2022/04/25 01:09:04;;;;;;;16.33;11.40;;;8.80;80.90;;;;;;5013792;28;20037;-80
2022/04/25 01:11:30;;;;;;;16.48;11.13;;;8.70;81.00;;;;;;5004920;28;20073;-79
2022/04/25 01:13:56;;;;;;;16.02;10.75;;;8.70;81.00;;;;;;5017372;28;20159;-79
2022/04/25 01:16:21;;;;;;;19.60;11.60;;;8.70;81.20;;;;;;5019219;28;20033;-79
2022/04/25 01:18:47;;;;;;;15.60;11.43;;;8.60;81.20;;;;;;5015572;28;20529;-79
2022/04/25 01:21:17;;;;;;;18.75;11.70;;;8.70;81.00;;;;;;5012977;28;20034;-80
2022/04/25 01:29:13;;;;;;;17.85;11.55;;;8.60;81.20;;;;;;5014650;28;20079;-79
2022/04/25 01:31:40;;;;;;;18.35;10.98;;;8.50;81.50;;;;;;5012653;28;20042;-79
2022/04/25 01:34:06;;;;;;;19.25;10.93;;;8.50;81.60;;;;;;5016560;28;20103;-80
2022/04/25 01:36:31;;;;;;;19.88;11.90;;;8.50;81.50;;;;;;5017611;28;20064;-79
2022/04/25 01:38:57;;;;;;;16.00;11.25;;;8.50;81.70;;;;;;5015294;28;20040;-80
2022/04/25 01:41:23;;;;;;;18.00;11.38;;;8.40;81.90;;;;;;5016026;28;20038;-80
2022/04/25 01:43:48;;;;;;;17.83;11.10;;;8.50;81.70;;;;;;5012213;28;20094;-80
2022/04/25 01:46:14;;;;;;;19.08;12.05;;;8.50;81.80;;;;;;5017678;28;20116;-80
2022/04/25 01:48:40;;;;;;;16.27;11.02;;;8.50;81.80;;;;;;5015997;28;20030;-79
2022/04/25 01:51:06;;;;;;;18.05;11.52;;;8.50;81.80;;;;;;5015548;28;20556;-80
2022/04/25 01:53:32;;;;;;;17.80;11.25;;;8.50;81.80;;;;;;5011525;28;20045;-80
2022/04/25 01:55:57;;;;;;;18.15;11.70;;;8.50;82.00;;;;;;5017601;28;20269;-79
2022/04/25 01:58:24;;;;;;;21.38;11.23;;;8.50;82.00;;;;;;5014817;28;20053;-80
2022/04/25 02:00:49;;;;;;;17.35;12.35;;;8.50;82.10;;;;;;5016746;28;20049;-79
2022/04/25 02:03:15;;;;;;;17.10;11.63;;;8.50;82.00;;;;;;5029944;28;20053;-80
2022/04/25 02:05:41;;;;;;;17.92;11.70;;;8.50;82.00;;;;;;5014977;28;20041;-80
2022/04/25 02:08:07;;;;;;;16.73;12.27;;;8.40;82.20;;;;;;5014741;28;20042;-78
2022/04/25 02:10:32;;;;;;;20.15;12.27;;;8.40;82.40;;;;;;5011374;28;20042;-80
2022/04/25 02:12:59;;;;;;;19.20;12.57;;;8.30;82.60;;;;;;5008331;28;20042;-80
2022/04/25 02:15:24;;;;;;;20.77;12.93;;;8.30;82.60;;;;;;5009500;28;20065;-81
2022/04/25 02:17:50;;;;;;;20.05;12.82;;;8.30;82.50;;;;;;5018011;28;20121;-78
2022/04/25 02:20:16;;;;;;;19.52;12.25;;;8.30;82.70;;;;;;5014646;28;20037;-78
2022/04/25 02:22:42;;;;;;;19.05;12.55;;;8.20;82.80;;;;;;5014557;28;20075;-79
2022/04/25 02:25:09;;;;;;;22.15;13.23;;;8.30;82.80;;;;;;5016043;28;20056;-78
2022/04/25 02:27:35;;;;;;;20.60;13.48;;;8.20;82.90;;;;;;5014052;28;20604;-79
2022/04/25 02:30:01;;;;;;;19.80;12.93;;;8.10;82.90;;;;;;5013807;28;20059;-79
2022/04/25 02:32:30;;;;;;;17.80;12.95;;;8.10;83.00;;;;;;5014521;28;20045;-79
2022/04/25 02:34:57;;;;;;;19.00;12.05;;;8.10;83.10;;;;;;5016726;28;20040;-79
2022/04/25 02:37:23;;;;;;;18.60;12.45;;;8.00;83.20;;;;;;5023199;28;20573;-79
2022/04/25 02:39:50;;;;;;;19.23;12.55;;;8.00;83.40;;;;;;5015521;28;20029;-80
2022/04/25 02:42:16;;;;;;;19.65;13.48;;;8.00;83.50;;;;;;5017424;28;20504;-79
2022/04/25 02:44:41;;;;;;;20.15;13.07;;;8.00;83.60;;;;;;5015504;28;20504;-79
2022/04/25 02:47:08;;;;;;;18.42;14.05;;;7.90;83.70;;;;;;5011847;28;20111;-79
2022/04/25 02:49:34;;;;;;;22.80;14.88;;;7.90;83.90;;;;;;5012778;28;20049;-80
2022/04/25 02:52:00;;;;;;;23.00;14.55;;;7.80;83.90;;;;;;5014539;28;20061;-80
2022/04/25 02:54:26;;;;;;;20.40;13.93;;;7.80;84.10;;;;;;5014438;28;20563;-79
2022/04/25 02:56:52;;;;;;;19.95;14.20;;;7.80;84.00;;;;;;5014936;28;20045;-79
2022/04/25 02:59:17;;;;;;;18.95;13.63;;;7.80;84.00;;;;;;5011793;28;20104;-79
2022/04/25 03:01:43;;;;;;;19.20;13.38;;;7.70;84.20;;;;;;5015140;28;20037;-80
2022/04/25 03:04:10;;;;;;;19.10;13.18;;;7.70;84.20;;;;;;5013902;28;20038;-79
2022/04/25 03:06:35;;;;;;;18.90;13.93;;;7.70;83.80;;;;;;5015244;28;20136;-79
2022/04/25 03:09:02;;;;;;;22.00;14.07;;;7.70;83.90;;;;;;5013791;28;20039;-79
2022/04/25 03:11:28;;;;;;;21.40;15.48;;;7.70;84.00;;;;;;5013087;28;20061;-79
2022/04/25 03:13:53;;;;;;;23.33;15.13;;;7.70;83.90;;;;;;5013542;28;20497;-79
2022/04/25 03:16:20;;;;;;;22.40;15.07;;;7.70;84.10;;;;;;5014393;28;20037;-79
2022/04/25 03:18:46;;;;;;;22.60;15.20;;;7.70;84.10;;;;;;5013146;28;20046;-79
2022/04/25 03:21:11;;;;;;;23.75;16.75;;;7.70;84.40;;;;;;5012957;28;20029;-79
2022/04/25 03:23:37;;;;;;;22.30;16.60;;;7.70;84.30;;;;;;5027847;28;20041;-78
2022/04/25 03:26:04;;;;;;;26.52;17.55;;;7.60;84.30;;;;;;5013554;28;20045;-80
2022/04/25 03:28:30;;;;;;;25.85;18.52;;;7.60;84.50;;;;;;5014315;28;20048;-79
2022/04/25 03:30:55;;;;;;;27.55;18.23;;;7.60;84.70;;;;;;5013058;28;20116;-78
2022/04/25 03:33:21;;;;;;;23.52;18.45;;;7.60;84.70;;;;;;5013246;28;20061;-79
2022/04/25 03:35:48;;;;;;;25.67;17.52;;;7.50;84.80;;;;;;5022974;28;20042;-78
2022/04/25 03:38:17;;;;;;;26.60;16.67;;;7.60;85.00;;;;;;5022486;28;20046;-80
2022/04/25 03:40:43;;;;;;;28.52;20.38;;;7.60;85.00;;;;;;5023000;28;20045;-78
2022/04/25 03:43:09;;;;;;;26.88;20.80;;;7.50;85.30;;;;;;5022493;28;20037;-79
2022/04/25 03:45:36;;;;;;;26.38;19.73;;;7.60;85.30;;;;;;5027678;28;20136;-79
2022/04/25 03:48:02;;;;;;;27.23;21.10;;;7.50;85.40;;;;;;5019510;28;20037;-78
2022/04/25 03:50:28;;;;;;;28.42;21.35;;;7.50;85.50;;;;;;5020569;28;20044;-79
2022/04/25 03:52:54;;;;;;;30.25;21.75;;;7.50;85.80;;;;;;5015056;28;20053;-79
2022/04/25 03:58:05;;;;;;;30.85;22.23;;;7.50;85.80;;;;;;5011895;28;20384;-79
2022/04/25 04:00:32;;;;;;;28.27;20.02;;;7.50;85.90;;;;;;5012308;28;20045;-79
2022/04/25 04:02:58;;;;;;;28.77;21.30;;;7.50;86.00;;;;;;5011519;28;20046;-80
2022/04/25 04:05:25;;;;;;;28.92;21.10;;;7.60;86.00;;;;;;5011016;28;20041;-79
2022/04/25 04:07:50;;;;;;;29.90;21.42;;;7.50;85.90;;;;;;5013010;28;20038;-79
2022/04/25 04:10:18;;;;;;;29.45;21.33;;;7.60;85.90;;;;;;5012580;28;20466;-78
2022/04/25 04:12:46;;;;;;;29.45;20.92;;;7.50;86.00;;;;;;5012569;28;20610;-79
2022/04/25 04:15:13;;;;;;;29.75;20.42;;;7.50;86.00;;;;;;5012659;28;20400;-79
2022/04/25 04:17:39;;;;;;;31.25;21.42;;;7.50;86.00;;;;;;5009005;28;20049;-80
2022/04/25 04:20:06;;;;;;;28.90;21.85;;;7.50;86.00;;;;;;5007874;28;20562;-79
2022/04/25 04:22:32;;;;;;;25.30;20.30;;;7.40;86.00;;;;;;5003635;28;20544;-79
2022/04/25 04:25:00;;;;;;;26.83;20.23;;;7.50;85.90;;;;;;5016087;28;20385;-79
2022/04/25 04:27:25;;;;;;;26.65;20.30;;;7.40;85.90;;;;;;5008903;28;20800;-79
2022/04/25 04:29:51;;;;;;;29.48;21.42;;;7.40;85.90;;;;;;5009323;28;20037;-81
2022/04/25 04:32:17;;;;;;;27.33;20.67;;;7.40;85.90;;;;;;5010804;28;20053;-80
2022/04/25 04:34:43;;;;;;;29.45;20.75;;;7.40;85.90;;;;;;5014446;28;20042;-79
2022/04/25 04:37:08;;;;;;;26.38;20.27;;;7.40;85.90;;;;;;5013343;28;20543;-79
2022/04/25 04:39:34;;;;;;;28.08;19.27;;;7.40;85.50;;;;;;5008021;28;20041;-79
2022/04/25 04:42:00;;;;;;;29.77;20.02;;;7.40;85.50;;;;;;5016417;28;20047;-79
2022/04/25 04:44:26;;;;;;;28.00;19.95;;;7.40;85.40;;;;;;5012820;28;20041;-80
2022/04/25 04:46:51;;;;;;;30.80;20.17;;;7.40;85.30;;;;;;5012906;28;20038;-80
2022/04/25 04:49:17;;;;;;;26.05;19.27;;;7.40;85.30;;;;;;5013874;28;20057;-80
2022/04/25 04:51:43;;;;;;;26.67;18.75;;;7.40;85.10;;;;;;5013780;28;20046;-80
2022/04/25 04:54:09;;;;;;;30.35;19.95;;;7.40;85.00;;;;;;5013783;28;20770;-80
2022/04/25 04:56:35;;;;;;;25.30;18.92;;;7.50;84.70;;;;;;5013491;28;20045;-80
2022/04/25 04:59:01;;;;;;;25.85;19.27;;;7.50;84.70;;;;;;5010444;28;20049;-81
2022/04/25 05:01:27;;;;;;;26.17;18.05;;;7.50;84.40;;;;;;5010203;28;20595;-81
2022/04/25 05:03:55;;;;;;;25.77;18.63;;;7.50;84.40;;;;;;5016729;28;20050;-80
2022/04/25 05:06:21;;;;;;;25.85;18.98;;;7.50;84.30;;;;;;5017557;28;20033;-82
2022/04/25 05:08:46;;;;;;;26.05;18.70;;;7.60;84.20;;;;;;5009470;28;20046;-80
2022/04/25 05:11:12;;;;;;;25.63;18.27;;;7.60;83.90;;;;;;5017261;28;20042;-82
2022/04/25 05:13:38;;;;;;;24.65;17.33;;;7.70;83.70;;;;;;5008625;28;20628;-81
2022/04/25 05:16:04;;;;;;;23.23;17.77;;;7.80;83.50;;;;;;5006232;28;20160;-80
2022/04/25 05:18:33;;;;;;;24.02;18.13;;;7.80;83.30;;;;;;5007635;28;20112;-82
2022/04/25 05:21:00;;;;;;;23.65;17.17;;;7.90;83.20;;;;;;5004086;28;20037;-80
2022/04/25 05:23:26;;;;;;;24.15;16.88;;;7.90;83.20;;;;;;5005614;28;20052;-81
2022/04/25 05:25:51;;;;;;;22.92;17.20;;;8.00;83.00;;;;;;5006525;28;20029;-81
2022/04/25 05:28:17;;;;;;;22.63;16.95;;;8.10;82.90;;;;;;5011523;28;20495;-82
2022/04/25 05:30:44;;;;;;;23.63;17.10;;;8.10;82.60;;;;;;5013709;28;20041;-82
2022/04/25 05:33:10;;;;;;;21.88;16.05;;;8.10;82.40;;;;;;5010853;28;20529;-78
2022/04/25 05:35:37;;;;;;;27.70;17.27;;;8.20;82.40;;;;;;5011574;28;20045;-77
2022/04/25 05:38:06;;;;;;;25.95;16.85;;;8.30;82.40;;;;;;5009236;28;20144;-77
2022/04/25 05:40:31;;;;;;;23.40;16.60;;;8.40;82.20;;;;;;5011969;28;20438;-76
2022/04/25 05:42:58;;;;;;;20.27;16.50;;;8.40;82.10;;;;;;5012901;28;20476;-78
2022/04/25 05:45:25;;;;;;;24.70;15.43;;;8.60;81.70;;;;;;5008526;28;20381;-76
2022/04/25 05:47:55;;;;;;;24.75;17.67;;;8.60;81.30;;;;;;5013360;28;20133;-76
2022/04/25 05:53:06;;;;;;;;;;;8.80;80.90;;;;;;5011212;28;20044;-78
2022/04/25 05:55:32;;;;;;;22.92;15.85;;;8.90;80.90;;;;;;5010156;28;19917;-76
2022/04/25 05:58:00;;;;;;;19.80;16.15;;;9.10;80.70;;;;;;5011455;28;20042;-76
2022/04/25 06:00:27;;;;;;;20.75;14.98;;;9.30;80.30;;;;;;5007868;28;20041;-77
2022/04/25 06:02:53;;;;;;;21.00;15.98;;;9.50;79.60;;;;;;5009843;28;20052;-78
2022/04/25 06:05:19;;;;;;;25.00;16.67;;;9.70;79.10;;;;;;5008640;28;20046;-78
2022/04/25 06:07:46;;;;;;;22.80;14.02;;;9.90;78.60;;;;;;5006785;28;20033;-78
2022/04/25 06:10:13;;;;;;;22.42;14.95;;;10.00;78.20;;;;;;5005412;28;20100;-78
2022/04/25 06:12:45;;;;;;;19.15;14.30;;;10.00;77.70;;;;;;5007751;28;20413;-79
2022/04/25 06:15:11;;;;;;;19.45;14.50;;;10.10;78.10;;;;;;5012510;28;20040;-79
2022/04/25 06:17:38;;;;;;;23.98;15.55;;;10.10;77.90;;;;;;5014907;28;20049;-81
2022/04/25 06:20:05;;;;;;;21.08;14.70;;;10.20;77.70;;;;;;5016274;28;20044;-77
2022/04/25 06:22:31;;;;;;;23.85;14.88;;;10.20;77.40;;;;;;5014418;28;20509;-77
2022/04/25 06:24:56;;;;;;;23.08;14.93;;;10.40;77.50;;;;;;5014985;28;20047;-78
2022/04/25 06:27:22;;;;;;;19.45;14.23;;;10.60;77.00;;;;;;5014465;28;20037;-77
2022/04/25 06:29:48;;;;;;;21.05;14.45;;;10.80;76.00;;;;;;5011939;28;20069;-77
2022/04/25 06:32:14;;;;;;;19.55;13.60;;;11.00;75.80;;;;;;5014473;28;20029;-77
2022/04/25 06:34:40;;;;;;;20.08;12.77;;;11.10;75.60;;;;;;5015688;28;20574;-76
2022/04/25 06:37:07;;;;;;;21.42;12.88;;;11.20;75.90;;;;;;5014037;28;20042;-77
2022/04/25 06:39:34;;;;;;;21.77;13.27;;;11.20;75.60;;;;;;5012781;28;20045;-77
2022/04/25 06:42:03;;;;;;;21.95;14.00;;;11.10;75.60;;;;;;5015313;28;20401;-80
2022/04/25 06:44:29;;;;;;;20.83;13.45;;;11.30;76.30;;;;;;5014901;28;20141;-80
2022/04/25 06:46:55;;;;;;;16.88;12.32;;;11.40;75.50;;;;;;5015391;28;20118;-73
2022/04/25 06:49:21;;;;;;;17.02;12.30;;;11.40;75.70;;;;;;5011839;28;20494;-74
2022/04/25 06:51:56;;;;;;;21.38;12.30;;;11.50;75.80;;;;;;5012102;28;20037;-75
2022/04/25 06:54:24;;;;;;;23.33;12.13;;;11.40;75.70;;;;;;5010101;28;20045;-76
2022/04/25 06:56:50;;;;;;;19.73;12.52;;;11.50;75.80;;;;;;5008723;28;21569;-75
2022/04/25 06:59:16;;;;;;;21.30;13.18;;;11.70;75.30;;;;;;5008372;28;20132;-75
2022/04/25 07:01:42;;;;;;;23.27;13.20;;;11.50;75.40;;;;;;5010758;28;20048;-75
2022/04/25 07:04:09;;;;;;;20.48;13.27;;;11.50;76.50;;;;;;5012248;28;20052;-75
2022/04/25 07:06:35;;;;;;;20.73;11.85;;;11.70;75.70;;;;;;5009990;28;20110;-74
2022/04/25 07:09:00;;;;;;;20.67;12.13;;;11.80;75.40;;;;;;5008621;28;20135;-75
2022/04/25 07:11:26;;;;;;;21.67;13.30;;;11.60;75.30;;;;;;5005226;28;20439;-76
2022/04/25 07:13:52;;;;;;;21.33;12.07;;;11.50;76.30;;;;;;5007892;28;20045;-76
2022/04/25 07:16:18;;;;;;;21.73;11.93;;;11.60;76.60;;;;;;5010874;28;20041;-74
2022/04/25 07:18:43;;;;;;;19.55;10.40;;;11.70;76.00;;;;;;5009381;28;20485;-75
2022/04/25 07:29:23;;;;;;;18.77;8.88;;;12.30;73.10;;;;;;5015185;28;20144;-75
2022/04/25 07:31:52;;;;;;;15.88;8.98;;;12.50;71.60;;;;;;5015866;28;20824;-76
2022/04/25 07:34:20;;;;;;;17.23;9.45;;;12.70;70.00;;;;;;5012196;28;20064;-75
2022/04/25 07:36:53;;;;;;;16.63;8.57;;;12.80;69.20;;;;;;5014690;28;20426;-75
2022/04/25 07:39:19;;;;;;;17.45;9.45;;;12.60;69.10;;;;;;5012212;28;20034;-75
2022/04/25 07:41:46;;;;;;;16.27;8.80;;;12.60;70.20;;;;;;5013417;28;20586;-76
2022/04/25 07:44:11;;;;;;;15.38;8.55;;;12.40;70.00;;;;;;5012477;28;20175;-75
2022/04/25 07:46:40;;;;;;;18.23;9.93;;;12.40;70.00;;;;;;5019336;28;20435;-76
2022/04/25 07:49:06;;;;;;;19.40;9.80;;;12.20;70.20;;;;;;5016782;28;20095;-75
2022/04/25 07:51:32;;;;;;;15.70;10.07;;;12.30;70.10;;;;;;5027626;28;20065;-75
2022/04/25 07:53:58;;;;;;;16.83;10.15;;;12.30;70.60;;;;;;5022644;28;20136;-75
2022/04/25 07:56:24;;;;;;;18.58;9.50;;;12.60;70.30;;;;;;5020197;28;20037;-75
2022/04/25 07:58:49;;;;;;;15.98;9.63;;;13.00;68.40;;;;;;5021226;28;20041;-75
2022/04/25 08:01:15;;;;;;;15.45;8.23;;;13.30;68.10;;;;;;5021530;28;20471;-75
2022/04/25 08:03:42;;;;;;;17.52;8.75;;;13.40;66.40;;;;;;5025338;28;20041;-76
2022/04/25 08:06:08;;;;;;;14.75;8.73;;;13.10;67.00;;;;;;5021381;28;20087;-75
2022/04/25 08:08:34;;;;;;;16.13;9.50;;;12.70;68.80;;;;;;5019328;28;20182;-76
2022/04/25 08:11:00;;;;;;;16.88;9.95;;;12.30;70.70;;;;;;5023262;28;20749;-75
2022/04/25 08:18:54;;;;;;;22.45;10.30;;;11.80;72.60;;;;;;5018342;28;20409;-76
2022/04/25 08:21:20;;;;;;;16.63;10.20;;;12.00;72.90;;;;;;5024124;28;20038;-77
2022/04/25 08:23:46;;;;;;;18.00;10.68;;;12.10;72.20;;;;;;5026611;28;20047;-75
2022/04/25 08:26:12;;;;;;;22.75;10.23;;;12.10;71.40;;;;;;5028462;28;20132;-76
2022/04/25 08:28:40;;;;;;;17.60;10.45;;;12.40;71.00;;;;;;5020039;28;20041;-77
2022/04/25 08:31:09;;;;;;;17.48;9.60;;;13.00;71.00;;;;;;5021617;28;20045;-75
2022/04/25 08:33:35;;;;;;;18.70;10.10;;;13.20;68.20;;;;;;5024084;28;20048;-76
2022/04/25 08:36:03;;;;;;;16.45;9.18;;;13.30;67.70;;;;;;5027015;28;20037;-75
2022/04/25 08:38:29;;;;;;;19.58;10.00;;;13.10;67.30;;;;;;5025436;28;20397;-76
2022/04/25 08:40:55;;;;;;;17.55;10.05;;;12.90;70.50;;;;;;5021072;28;20044;-75
2022/04/25 08:43:22;;;;;;;19.73;10.55;;;12.40;73.10;;;;;;5026232;28;20044;-74
2022/04/25 08:45:49;;;;;;;17.95;10.50;;;12.10;74.70;;;;;;5025943;28;20064;-75
2022/04/25 08:48:15;;;;;;;18.42;11.52;;;12.00;74.20;;;;;;5021771;28;20435;-76
2022/04/25 08:50:41;;;;;;;17.98;10.93;;;11.70;75.10;;;;;;5027558;28;20038;-74
2022/04/25 08:53:09;;;;;;;18.15;11.57;;;11.70;76.30;;;;;;5017280;28;20521;-74
2022/04/25 08:55:35;;;;;;;19.02;12.63;;;11.60;77.10;;;;;;5019439;28;20063;-74
2022/04/25 08:58:02;;;;;;;22.52;12.00;;;11.50;77.70;;;;;;5028081;28;20476;-75
2022/04/25 09:00:28;;;;;;;20.23;12.88;;;11.40;78.60;;;;;;5026901;28;20408;-81
2022/04/25 09:02:54;;;;;;;19.77;12.05;;;11.40;78.70;;;;;;5021373;28;20358;-75
2022/04/25 09:05:21;;;;;;;19.38;11.68;;;11.10;77.70;;;;;;5028003;28;20526;-74
2022/04/25 09:07:47;;;;;;;16.63;12.23;;;11.10;78.20;;;;;;5029028;28;20107;-74
2022/04/25 09:10:17;;;;;;;20.38;12.98;;;11.00;77.10;;;;;;5024557;28;20033;-76
2022/04/25 09:12:47;;;;;;;18.90;13.00;;;11.00;77.40;;;;;;5031040;28;20052;-76
2022/04/25 09:15:17;;;;;;;21.38;13.77;;;11.00;77.30;;;;;;5025282;28;20487;-74
2022/04/25 09:17:43;;;;;;;24.98;13.88;;;11.10;76.90;;;;;;5027188;28;20045;-72
2022/04/25 09:20:10;;;;;;;19.08;14.60;;;11.10;77.50;;;;;;5019216;28;20107;-72
2022/04/25 09:22:40;;;;;;;22.67;15.70;;;11.10;78.00;;;;;;5031216;28;20094;-72
2022/04/25 09:25:15;;;;;;;21.60;15.13;;;11.10;78.00;;;;;;5022525;28;20095;-73
2022/04/25 09:27:42;;;;;;;21.13;15.18;;;11.10;77.90;;;;;;5022628;28;20064;-74
2022/04/25 09:30:18;;;;;;;21.92;15.07;;;11.50;77.50;;;;;;5011894;28;20403;-74
2022/04/25 09:32:46;;;;;;;21.00;14.85;;;12.10;77.50;;;;;;5021569;28;20053;-73
2022/04/25 09:35:29;;;;;;;19.52;13.48;;;12.40;73.80;;;;;;5011569;28;21256;-73
2022/04/25 09:37:56;;;;;;;22.08;13.38;;;12.60;72.50;;;;;;5021308;28;20772;-74
2022/04/25 09:40:23;;;;;;;16.02;11.45;;;13.00;71.90;;;;;;5018302;28;20033;-73
2022/04/25 09:43:14;;;;;;;12.55;10.23;;;13.10;68.40;;;;;;5021920;28;20125;-74
2022/04/25 09:45:44;;;;;;;13.98;10.93;;;13.40;64.10;;;;;;5025459;28;20037;-73
2022/04/25 09:48:11;;;;;;;15.52;11.75;;;13.30;63.80;;;;;;5028108;28;20036;-73
2022/04/25 09:50:38;;;;;;;15.60;11.52;;;13.60;65.70;;;;;;5036105;28;20038;-73
2022/04/25 09:53:05;;;;;;;15.63;13.60;;;14.00;63.20;;;;;;5023613;28;20497;-74
2022/04/25 09:55:34;;;;;;;20.10;15.82;;;13.60;64.10;;;;;;5025580;28;20556;-72
2022/04/25 09:58:21;;;;;;;14.40;12.18;;;13.50;66.10;;;;;;5028965;28;20035;-73
2022/04/25 10:00:49;;;;;;;16.88;12.25;;;13.20;64.80;;;;;;5013494;28;20100;-73
2022/04/25 10:03:16;;;;;;;19.27;14.77;;;12.90;65.70;;;;;;5017754;28;20041;-72
2022/04/25 10:05:47;;;;;;;18.73;15.23;;;12.60;69.60;;;;;;5018009;28;20041;-72
2022/04/25 10:08:16;;;;;;;18.55;16.00;;;11.90;73.60;;;;;;5015422;28;20038;-72
2022/04/25 10:10:58;;;;;;;15.68;13.98;;;11.50;75.90;;;;;;5019587;28;20472;-73
2022/04/25 10:13:28;;;;;;;13.90;11.15;;;11.40;76.00;;;;;;5024475;28;20117;-75
2022/04/25 10:15:56;;;;;;;15.13;11.65;;;11.00;73.00;;;;;;5024539;28;20044;-74
2022/04/25 10:18:22;;;;;;;14.27;10.13;;;11.10;76.50;;;;;;5025458;28;20444;-74
2022/04/25 10:20:48;;;;;;;13.32;10.27;;;11.10;74.40;;;;;;5019561;28;20046;-74
2022/04/25 10:23:16;;;;;;;14.45;10.75;;;11.00;74.20;;;;;;5027363;28;20048;-72
2022/04/25 10:25:48;;;;;;;14.30;10.88;;;11.00;75.30;;;;;;5028208;28;20037;-73
2022/04/25 10:28:19;;;;;;;15.38;10.65;;;11.00;74.40;;;;;;5023415;28;20076;-73
2022/04/25 10:30:48;;;;;;;12.63;9.95;;;10.90;74.80;;;;;;5019923;28;20034;-72
2022/04/25 10:33:17;;;;;;;12.80;10.52;;;10.90;73.70;;;;;;5015549;28;20454;-72
2022/04/25 10:35:45;;;;;;;11.80;9.07;;;10.80;73.60;;;;;;5015096;28;20040;-72
2022/04/25 10:38:48;;;;;;;11.02;8.98;;;10.60;73.90;;;;;;5017020;28;20051;-74
2022/04/25 10:44:17;;;;;;;14.20;10.48;;;10.90;74.60;;;;;;5016289;28;20064;-73
2022/04/25 10:47:09;;;;;;;14.85;11.32;;;11.10;75.20;;;;;;5015264;28;20401;-73
2022/04/25 10:49:40;;;;;;;13.82;10.80;;;11.40;76.20;;;;;;5011520;28;20095;-73
2022/04/25 10:52:42;;;;;;;16.10;12.52;;;11.60;75.20;;;;;;5013669;28;20037;-73
2022/04/25 10:55:23;;;;;;;16.60;12.70;;;12.00;75.30;;;;;;5010015;28;20049;-73
2022/04/25 10:58:04;;;;;;;18.88;14.07;;;12.20;73.00;;;;;;5027520;28;20042;-73
2022/04/25 11:00:42;;;;;;;18.27;14.32;;;12.30;72.00;;;;;;5013210;28;20053;-74
2022/04/25 11:03:12;;;;;;;17.30;14.15;;;12.80;72.50;;;;;;5014892;28;20512;-73
2022/04/25 11:05:40;;;;;;;17.15;14.65;;;12.90;72.40;;;;;;5013646;28;20044;-71
2022/04/25 11:08:27;;;;;;;18.25;13.55;;;13.10;70.10;;;;;;5017374;28;20052;-72
2022/04/25 11:10:59;;;;;;;18.85;14.32;;;13.00;69.10;;;;;;5013379;28;20125;-72
2022/04/25 11:14:01;;;;;;;16.88;14.02;;;13.50;69.40;;;;;;5010994;28;20049;-71
2022/04/25 11:16:28;;;;;;;18.38;14.65;;;14.10;67.90;;;;;;5011580;28;20144;-74
2022/04/25 11:19:11;;;;;;;18.08;14.35;;;14.80;66.60;;;;;;5014559;28;20041;-72
2022/04/25 11:21:45;;;;;;;16.52;14.23;;;15.30;64.10;;;;;;5011407;28;20049;-73
2022/04/25 11:24:39;;;;;;;19.55;14.15;;;15.20;61.50;;;;;;5013656;28;20493;-71
2022/04/25 11:27:14;;;;;;;18.50;14.18;;;15.60;60.90;;;;;;5012511;28;20038;-73
2022/04/25 11:29:45;;;;;;;22.58;14.75;;;16.00;60.50;;;;;;5013746;28;20065;-72
2022/04/25 11:32:32;;;;;;;19.23;13.63;;;16.10;58.20;;;;;;5013898;28;20046;-73
2022/04/25 11:34:59;;;;;;;16.42;14.48;;;15.90;60.40;;;;;;5010866;28;20592;-73
2022/04/25 11:37:27;;;;;;;17.35;14.73;;;15.10;61.50;;;;;;5012579;28;20030;-73
2022/04/25 11:40:01;;;;;;;18.10;15.93;;;14.80;64.00;;;;;;5017924;28;20041;-74
2022/04/25 11:42:31;;;;;;;14.02;9.50;;;14.50;64.20;;;;;;5026571;28;20167;-73
2022/04/25 11:44:58;;;;;;;14.95;10.77;;;13.20;59.40;;;;;;5023969;28;20037;-72
2022/04/25 11:47:24;;;;;;;14.25;10.02;;;13.40;60.00;;;;;;5015128;28;20060;-74
2022/04/25 11:50:01;;;;;;;14.68;12.52;;;13.30;61.00;;;;;;5020244;28;20038;-75
2022/04/25 11:52:27;;;;;;;18.85;15.18;;;13.00;66.80;;;;;;5025469;28;20041;-73
2022/04/25 11:54:54;;;;;;;19.58;15.95;;;12.70;69.00;;;;;;5017904;28;21227;-74
2022/04/25 11:57:20;;;;;;;18.20;14.95;;;12.60;71.60;;;;;;5020371;28;20040;-73
2022/04/25 11:59:45;;;;;;;18.90;16.15;;;12.50;71.90;;;;;;5025096;28;20420;-73
2022/04/25 12:02:11;;;;;;;19.13;15.60;;;12.30;71.90;;;;;;5023604;28;20435;-73
2022/04/25 12:04:38;;;;;;;15.77;14.00;;;12.10;71.00;;;;;;5022566;28;20045;-73
2022/04/25 12:07:08;;;;;;;19.65;14.95;;;12.00;71.70;;;;;;5029403;28;20044;-75
2022/04/25 12:15:34;;;;;;;12.85;9.43;;;12.00;71.20;;;;;;5020253;28;20033;-75
2022/04/25 12:18:23;;;;;;;12.57;7.88;;;12.30;68.80;;;;;;5023907;28;20537;-72
2022/04/25 12:20:59;;;;;;;14.40;11.45;;;12.50;66.40;;;;;;5021362;28;20409;-72
2022/04/25 12:23:27;;;;;;;16.80;14.00;;;12.80;69.80;;;;;;5030982;28;20041;-73
2022/04/25 12:25:53;;;;;;;16.50;12.88;;;12.90;71.80;;;;;;5021328;28;20033;-72
2022/04/25 12:28:22;;;;;;;15.15;12.35;;;13.00;71.80;;;;;;5022247;28;20037;-74
2022/04/25 12:31:04;;;;;;;15.80;11.80;;;12.90;70.00;;;;;;5022334;28;20653;-73
2022/04/25 12:33:35;;;;;;;19.63;12.57;;;12.90;69.50;;;;;;5024086;28;20154;-73
2022/04/25 12:36:16;;;;;;;19.17;14.38;;;13.20;70.60;;;;;;5023930;28;20064;-74
2022/04/25 12:39:03;;;;;;;17.35;14.23;;;13.20;71.70;;;;;;5033294;28;20443;-73
2022/04/25 12:41:38;;;;;;;16.05;13.35;;;13.20;70.20;;;;;;5020122;28;20041;-72
2022/04/25 12:44:09;;;;;;;15.20;11.93;;;13.60;70.20;;;;;;5026919;28;20075;-74
2022/04/25 12:46:46;;;;;;;15.32;12.20;;;13.20;67.60;;;;;;5020132;28;20052;-73
2022/04/25 12:49:17;;;;;;;14.10;11.27;;;13.20;67.30;;;;;;5009304;28;20084;-73
2022/04/25 12:51:55;;;;;;;14.50;11.98;;;13.20;66.50;;;;;;5014275;28;20044;-73
2022/04/25 12:54:23;;;;;;;14.52;11.77;;;13.10;65.90;;;;;;5016852;28;20522;-72
2022/04/25 12:57:10;;;;;;;14.30;12.25;;;13.10;67.20;;;;;;5018644;28;20072;-72
2022/04/25 12:59:36;;;;;;;14.02;11.52;;;13.20;65.50;;;;;;5018745;28;20091;-72
2022/04/25 13:02:14;;;;;;;13.00;10.63;;;13.30;65.60;;;;;;5017365;28;20041;-76
2022/04/25 13:05:00;;;;;;;14.07;11.68;;;13.60;66.00;;;;;;5019740;28;20167;-72
2022/04/25 13:07:28;;;;;;;15.13;12.65;;;13.80;65.10;;;;;;5022429;28;20041;-73
2022/04/25 13:09:56;;;;;;;15.13;13.40;;;13.90;66.10;;;;;;5014572;28;20033;-72
2022/04/25 13:12:23;;;;;;;15.18;13.38;;;13.80;66.50;;;;;;5015108;28;20405;-72